createdAt,value
2022-11-28T00:01:30.117Z,35.57
2022-11-28T00:03:57.117Z,36.87
2022-11-28T00:06:24.329Z,39.53
2022-11-28T00:08:51.529Z,40.67
2022-11-28T00:11:18.581Z,40.53
2022-11-28T00:13:46.618Z,39.30
2022-11-28T00:16:18.052Z,38.97
2022-11-28T00:18:45.071Z,40.37
2022-11-28T00:21:14.106Z,40.03
2022-11-28T00:23:44.062Z,38.47
2022-11-28T00:26:24.527Z,39.33
2022-11-28T00:28:51.766Z,39.53
2022-11-28T00:31:23.696Z,39.47
2022-11-28T00:33:51.319Z,38.23
2022-11-28T00:36:19.491Z,37.07
2022-11-28T00:38:46.766Z,38.27
2022-11-28T00:41:18.972Z,36.50
2022-11-28T00:43:47.089Z,39.40
2022-11-28T00:46:15.490Z,38.93
2022-11-28T00:48:42.922Z,38.53
2022-11-28T00:51:29.200Z,38.23
2022-11-28T00:53:59.253Z,39.10
2022-11-28T00:56:29.946Z,37.07
2022-11-28T00:58:57.563Z,37.73
2022-11-28T01:01:41.752Z,39.77
2022-11-28T01:04:13.073Z,38.00
2022-11-28T01:06:44.165Z,38.30
2022-11-28T01:09:18.232Z,36.97
2022-11-28T01:11:49.082Z,36.73
2022-11-28T01:14:19.014Z,36.53
2022-11-28T01:16:46.047Z,36.77
2022-11-28T01:19:13.939Z,38.43
2022-11-28T01:21:41.738Z,39.17
2022-11-28T01:24:09.009Z,35.90
2022-11-28T01:26:37.963Z,37.80
2022-11-28T01:29:04.938Z,38.03
2022-11-28T01:31:31.985Z,35.90
2022-11-28T01:33:59.474Z,35.00
2022-11-28T01:36:27.733Z,35.77
2022-11-28T01:38:54.993Z,35.33
2022-11-28T01:41:26.466Z,36.20
2022-11-28T01:44:27.726Z,35.57
2022-11-28T01:46:54.728Z,35.83
2022-11-28T01:49:26.321Z,35.30
2022-11-28T01:52:00.190Z,35.00
2022-11-28T01:54:28.378Z,37.33
2022-11-28T01:57:06.784Z,34.50
2022-11-28T01:59:41.637Z,35.77
2022-11-28T02:02:15.981Z,37.10
2022-11-28T02:04:43.115Z,35.90
2022-11-28T02:07:10.245Z,33.83
2022-11-28T02:09:37.130Z,34.47
2022-11-28T02:12:22.114Z,33.87
2022-11-28T02:15:07.813Z,33.43
2022-11-28T02:18:01.624Z,35.30
2022-11-28T02:21:05.989Z,35.07
2022-11-28T02:24:38.554Z,32.63
2022-11-28T02:27:44.201Z,32.57
2022-11-28T02:30:19.707Z,32.73
2022-11-28T02:33:21.646Z,32.43
2022-11-28T02:36:03.833Z,32.27
2022-11-28T02:39:00.395Z,32.93
2022-11-28T02:41:40.083Z,33.07
2022-11-28T02:44:40.010Z,32.47
2022-11-28T02:47:33.049Z,30.73
2022-11-28T02:50:10.210Z,30.53
2022-11-28T02:52:44.260Z,30.80
2022-11-28T02:55:13.182Z,32.83
2022-11-28T02:57:47.517Z,32.30
2022-11-28T03:00:32.424Z,31.17
2022-11-28T03:03:38.500Z,31.47
2022-11-28T03:06:48.538Z,31.80
2022-11-28T03:09:40.040Z,28.60
2022-11-28T03:12:33.943Z,30.70
2022-11-28T03:15:05.156Z,30.30
2022-11-28T03:18:04.866Z,30.07
2022-11-28T03:20:48.515Z,29.13
2022-11-28T03:23:23.793Z,30.03
2022-11-28T03:26:12.083Z,28.37
2022-11-28T03:29:01.325Z,28.70
2022-11-28T03:31:38.631Z,28.67
2022-11-28T03:34:09.573Z,28.10
2022-11-28T03:36:46.173Z,29.87
2022-11-28T03:39:18.289Z,28.73
2022-11-28T03:42:01.920Z,28.70
2022-11-28T03:44:37.363Z,27.80
2022-11-28T03:47:05.796Z,28.37
2022-11-28T03:49:39.033Z,28.53
2022-11-28T03:52:12.000Z,28.87
2022-11-28T03:54:51.568Z,28.07
2022-11-28T03:57:25.248Z,27.80
2022-11-28T03:59:54.164Z,27.73
2022-11-28T04:02:38.886Z,27.07
2022-11-28T04:05:33.116Z,27.70
2022-11-28T04:08:18.399Z,30.20
2022-11-28T04:10:56.147Z,28.47
2022-11-28T04:13:29.679Z,28.80
2022-11-28T04:16:24.152Z,28.20
2022-11-28T04:19:16.981Z,27.27
2022-11-28T04:21:54.592Z,26.83
2022-11-28T04:24:28.789Z,28.70
2022-11-28T04:27:01.708Z,28.10
2022-11-28T04:29:35.903Z,28.30
2022-11-28T04:32:05.100Z,28.60
2022-11-28T04:34:35.118Z,27.63
2022-11-28T04:37:08.304Z,26.13
2022-11-28T04:39:37.963Z,27.50
2022-11-28T04:42:31.158Z,27.20
2022-11-28T04:45:09.059Z,27.70
2022-11-28T04:47:35.955Z,28.20
2022-11-28T04:50:03.166Z,28.20
2022-11-28T04:52:54.592Z,27.63
2022-11-28T04:55:54.392Z,26.57
2022-11-28T04:58:40.689Z,27.53
2022-11-28T05:01:12.593Z,26.37
2022-11-28T05:03:42.754Z,25.63
2022-11-28T05:06:10.181Z,25.33
2022-11-28T05:08:37.265Z,27.27
2022-11-28T05:11:04.247Z,27.23
2022-11-28T05:13:31.110Z,28.97
2022-11-28T05:16:01.583Z,27.17
2022-11-28T05:18:28.544Z,26.50
2022-11-28T05:20:55.455Z,28.47
2022-11-28T05:23:22.362Z,27.27
2022-11-28T05:25:49.240Z,25.23
2022-11-28T05:28:16.150Z,28.33
2022-11-28T05:30:43.046Z,27.07
2022-11-28T05:33:09.925Z,26.63
2022-11-28T05:35:40.078Z,27.53
2022-11-28T05:38:12.117Z,29.07
2022-11-28T05:40:44.234Z,28.30
2022-11-28T05:43:11.885Z,27.30
2022-11-28T05:45:43.340Z,28.23
2022-11-28T05:48:10.754Z,28.97
2022-11-28T05:50:42.011Z,29.67
2022-11-28T05:53:09.740Z,28.73
2022-11-28T05:55:41.317Z,28.83
2022-11-28T05:58:08.369Z,27.97
2022-11-28T06:00:35.600Z,28.67
2022-11-28T06:03:04.583Z,27.37
2022-11-28T06:05:47.500Z,31.07
2022-11-28T06:08:14.494Z,28.70
2022-11-28T06:10:41.808Z,27.50
2022-11-28T06:13:09.161Z,27.87
2022-11-28T06:15:38.360Z,27.63
2022-11-28T06:18:06.085Z,27.83
2022-11-28T06:20:35.819Z,27.27
2022-11-28T06:23:02.732Z,27.10
2022-11-28T06:25:29.896Z,27.57
2022-11-28T06:27:56.782Z,27.97
2022-11-28T06:30:23.709Z,27.23
2022-11-28T06:32:50.581Z,27.03
2022-11-28T06:35:17.587Z,28.87
2022-11-28T06:37:44.507Z,27.47
2022-11-28T06:40:11.587Z,28.90
2022-11-28T06:42:38.603Z,26.60
2022-11-28T06:45:06.526Z,28.70
2022-11-28T06:47:33.503Z,30.13
2022-11-28T06:50:00.386Z,27.00
2022-11-28T06:52:27.560Z,26.57
2022-11-28T06:54:54.734Z,31.20
2022-11-28T06:57:22.178Z,27.80
2022-11-28T06:59:50.652Z,27.40
2022-11-28T07:02:17.673Z,27.53
2022-11-28T07:04:45.090Z,31.73
2022-11-28T07:07:16.253Z,28.83
2022-11-28T07:09:44.336Z,31.97
2022-11-28T07:12:11.422Z,30.70
2022-11-28T07:14:38.410Z,30.93
2022-11-28T07:17:05.404Z,30.10
2022-11-28T07:19:32.394Z,29.50
2022-11-28T07:21:59.314Z,30.27
2022-11-28T07:24:26.268Z,29.53
2022-11-28T07:26:53.215Z,30.47
2022-11-28T07:29:20.175Z,26.20
2022-11-28T07:31:47.125Z,30.37
2022-11-28T07:34:14.137Z,30.57
2022-11-28T07:36:41.026Z,31.63
2022-11-28T07:39:10.689Z,34.90
2022-11-28T07:41:37.563Z,30.33
2022-11-28T07:44:05.738Z,26.90
2022-11-28T07:46:33.397Z,25.93
2022-11-28T07:49:00.862Z,28.37
2022-11-28T07:51:32.172Z,28.13
2022-11-28T07:54:00.178Z,27.17
2022-11-28T07:56:50.219Z,25.93
2022-11-28T07:59:17.260Z,27.00
2022-11-28T08:01:44.242Z,28.60
2022-11-28T08:04:11.235Z,24.13
2022-11-28T08:06:41.206Z,25.67
2022-11-28T08:09:08.453Z,27.17
2022-11-28T08:11:36.132Z,26.60
2022-11-28T08:14:03.997Z,33.50
2022-11-28T08:16:31.449Z,29.13
2022-11-28T08:19:02.158Z,28.07
2022-11-28T08:21:32.512Z,30.20
2022-11-28T08:24:01.541Z,31.43
2022-11-28T08:26:31.318Z,28.40
2022-11-28T08:29:00.360Z,34.60
2022-11-28T08:31:31.224Z,30.63
2022-11-28T08:34:00.734Z,29.40
2022-11-28T08:36:29.372Z,28.57
2022-11-28T08:39:16.711Z,23.90
2022-11-28T08:41:43.975Z,24.77
2022-11-28T08:44:10.981Z,25.73
2022-11-28T08:46:37.920Z,25.83
2022-11-28T08:49:04.967Z,26.03
2022-11-28T08:51:31.944Z,25.93
2022-11-28T08:53:59.966Z,25.03
2022-11-28T08:56:27.795Z,25.57
2022-11-28T08:58:55.335Z,25.03
2022-11-28T09:01:25.149Z,23.70
2022-11-28T09:03:54.209Z,24.23
2022-11-28T09:06:22.386Z,23.53
2022-11-28T09:08:49.939Z,23.50
2022-11-28T09:11:20.293Z,25.03
2022-11-28T09:13:47.553Z,26.03
2022-11-28T09:16:15.506Z,23.77
2022-11-28T09:18:42.704Z,25.07
2022-11-28T09:21:12.943Z,22.70
2022-11-28T09:23:41.816Z,27.20
2022-11-28T09:26:20.524Z,23.20
2022-11-28T09:28:47.985Z,24.03
2022-11-28T09:31:17.115Z,23.97
2022-11-28T09:33:45.742Z,23.50
2022-11-28T09:36:16.524Z,23.97
2022-11-28T09:38:43.735Z,22.63
2022-11-28T09:41:28.590Z,22.43
2022-11-28T09:44:43.676Z,22.07
2022-11-28T09:47:19.192Z,21.77
2022-11-28T09:49:58.250Z,23.80
2022-11-28T09:52:40.648Z,22.53
2022-11-28T09:55:39.035Z,21.67
2022-11-28T09:58:32.140Z,21.83
2022-11-28T10:01:16.910Z,21.10
2022-11-28T10:03:56.343Z,20.23
2022-11-28T10:06:31.524Z,21.93
2022-11-28T10:09:39.149Z,19.53
2022-11-28T10:12:36.644Z,20.80
2022-11-28T10:15:10.376Z,17.77
2022-11-28T10:18:07.125Z,18.13
2022-11-28T10:20:39.949Z,18.50
2022-11-28T10:23:30.534Z,20.03
2022-11-28T10:26:04.324Z,19.03
2022-11-28T10:28:36.894Z,19.83
2022-11-28T10:31:25.615Z,18.17
2022-11-28T10:34:08.662Z,18.87
2022-11-28T10:37:01.504Z,18.17
2022-11-28T10:39:28.523Z,18.93
2022-11-28T10:42:29.569Z,17.23
2022-11-28T10:45:31.981Z,17.27
2022-11-28T10:48:40.974Z,16.53
2022-11-28T10:51:38.533Z,16.87
2022-11-28T10:54:42.015Z,15.87
2022-11-28T10:57:50.558Z,17.43
2022-11-28T11:00:19.608Z,16.10
2022-11-28T11:02:54.840Z,15.03
2022-11-28T11:05:32.638Z,16.43
2022-11-28T11:08:20.116Z,14.23
2022-11-28T11:11:06.578Z,16.20
2022-11-28T11:14:05.522Z,15.53
2022-11-28T11:16:51.832Z,16.80
2022-11-28T11:19:26.250Z,14.90
2022-11-28T11:22:16.641Z,15.40
2022-11-28T11:24:43.559Z,14.90
2022-11-28T11:27:23.444Z,14.83
2022-11-28T11:29:52.159Z,15.87
2022-11-28T11:32:28.199Z,15.73
2022-11-28T11:34:57.498Z,14.33
2022-11-28T11:37:38.686Z,16.67
2022-11-28T11:40:29.074Z,15.93
2022-11-28T11:43:01.428Z,20.83
2022-11-28T11:45:34.624Z,22.23
2022-11-28T11:48:03.771Z,17.07
2022-11-28T11:50:32.910Z,18.33
2022-11-28T11:53:06.485Z,19.90
2022-11-28T11:55:49.753Z,19.13
2022-11-28T11:58:22.393Z,15.23
2022-11-28T12:00:52.369Z,18.23
2022-11-28T12:03:41.535Z,18.43
2022-11-28T12:06:23.419Z,16.87
2022-11-28T12:08:54.870Z,14.67
2022-11-28T12:11:30.373Z,17.13
2022-11-28T12:14:26.292Z,18.20
2022-11-28T12:17:25.602Z,16.33
2022-11-28T12:20:30.521Z,16.53
2022-11-28T12:23:17.595Z,19.80
2022-11-28T12:26:01.893Z,18.57
2022-11-28T12:29:07.152Z,18.50
2022-11-28T12:31:58.729Z,19.57
2022-11-28T12:35:08.992Z,20.13
2022-11-28T12:38:12.796Z,20.77
2022-11-28T12:41:11.397Z,18.50
2022-11-28T12:44:16.299Z,19.67
2022-11-28T12:47:02.236Z,19.13
2022-11-28T12:49:58.018Z,19.50
2022-11-28T12:53:17.793Z,21.40
2022-11-28T12:56:04.772Z,20.33
2022-11-28T12:58:43.220Z,18.47
2022-11-28T13:01:49.781Z,18.77
2022-11-28T13:04:42.843Z,17.53
2022-11-28T13:07:54.309Z,19.03
2022-11-28T13:10:46.790Z,17.13
2022-11-28T13:13:22.845Z,18.00
2022-11-28T13:15:49.683Z,17.90
2022-11-28T13:18:33.884Z,18.37
2022-11-28T13:21:43.794Z,19.90
2022-11-28T13:24:23.600Z,16.70
2022-11-28T13:27:22.008Z,16.20
2022-11-28T13:30:23.219Z,17.53
2022-11-28T13:33:12.171Z,18.17
2022-11-28T13:35:42.843Z,20.77
2022-11-28T13:39:11.123Z,22.23
2022-11-28T13:42:59.532Z,22.63
2022-11-28T13:45:03.363Z,22.17
2022-11-28T13:47:35.203Z,23.27
2022-11-28T13:50:30.331Z,21.23
2022-11-28T13:53:12.621Z,21.83
2022-11-28T13:55:49.449Z,21.30
2022-11-28T13:58:22.401Z,21.73
2022-11-28T14:01:07.804Z,21.87
2022-11-28T14:03:44.266Z,22.90
2022-11-28T14:06:16.291Z,28.30
2022-11-28T14:08:44.929Z,25.80
2022-11-28T14:11:27.725Z,19.73
2022-11-28T14:14:09.889Z,17.30
2022-11-28T14:17:11.594Z,18.40
2022-11-28T14:20:02.249Z,25.57
2022-11-28T14:22:48.832Z,26.30
2022-11-28T14:25:39.034Z,29.63
2022-11-28T14:28:37.779Z,35.10
2022-11-28T14:31:32.249Z,29.07
2022-11-28T14:34:03.651Z,29.83
2022-11-28T14:36:42.911Z,23.60
2022-11-28T14:39:14.375Z,24.87
2022-11-28T14:42:03.173Z,26.17
2022-11-28T14:44:57.221Z,21.70
2022-11-28T14:47:24.031Z,21.87
2022-11-28T14:50:09.388Z,21.43
2022-11-28T14:52:44.730Z,23.60
2022-11-28T14:55:13.098Z,21.17
2022-11-28T14:58:00.357Z,20.13
2022-11-28T15:00:35.298Z,21.03
2022-11-28T15:03:50.844Z,25.07
2022-11-28T15:06:31.121Z,21.07
2022-11-28T15:09:19.868Z,21.83
2022-11-28T15:12:14.407Z,27.67
2022-11-28T15:14:42.655Z,21.73
2022-11-28T15:17:13.788Z,22.40
2022-11-28T15:19:47.758Z,20.30
2022-11-28T15:22:41.254Z,18.73
2022-11-28T15:25:35.701Z,25.43
2022-11-28T15:28:20.579Z,24.90
2022-11-28T15:30:52.167Z,22.40
2022-11-28T15:33:20.796Z,22.20
2022-11-28T15:36:15.657Z,20.47
2022-11-28T15:38:43.624Z,23.93
2022-11-28T15:41:11.145Z,25.67
2022-11-28T15:43:42.464Z,22.90
2022-11-28T15:46:20.874Z,24.40
2022-11-28T15:48:52.404Z,24.00
2022-11-28T15:51:32.809Z,23.03
2022-11-28T15:54:03.408Z,23.67
2022-11-28T15:56:30.530Z,21.83
2022-11-28T15:58:57.600Z,24.33
2022-11-28T16:01:27.710Z,21.63
2022-11-28T16:04:15.033Z,21.73
2022-11-28T16:06:50.492Z,21.13
2022-11-28T16:09:20.436Z,22.50
2022-11-28T16:11:51.585Z,29.77
2022-11-28T16:14:28.523Z,24.13
2022-11-28T16:16:57.822Z,30.63
2022-11-28T16:19:31.213Z,24.10
2022-11-28T16:22:11.614Z,30.60
2022-11-28T16:24:51.106Z,32.03
2022-11-28T16:27:41.639Z,28.97
2022-11-28T16:30:38.382Z,25.07
2022-11-28T16:33:38.987Z,23.90
2022-11-28T16:36:22.827Z,26.77
2022-11-28T16:38:53.722Z,31.53
2022-11-28T16:41:25.590Z,26.53
2022-11-28T16:44:25.220Z,25.13
2022-11-28T16:46:55.595Z,22.73
2022-11-28T16:49:37.210Z,22.30
2022-11-28T16:52:22.217Z,23.13
2022-11-28T16:54:56.791Z,21.73
2022-11-28T16:57:27.615Z,20.00
2022-11-28T16:59:58.598Z,20.63
2022-11-28T17:02:27.062Z,20.70
2022-11-28T17:04:54.298Z,20.97
2022-11-28T17:07:24.279Z,19.60
2022-11-28T17:09:51.762Z,18.83
2022-11-28T17:12:39.697Z,18.87
2022-11-28T17:15:14.501Z,19.77
2022-11-28T17:17:41.487Z,21.33
2022-11-28T17:20:09.401Z,23.77
2022-11-28T17:22:45.843Z,22.80
2022-11-28T17:25:19.553Z,20.77
2022-11-28T17:27:48.224Z,23.40
2022-11-28T17:30:19.771Z,20.43
2022-11-28T17:32:52.088Z,21.37
2022-11-28T17:35:24.180Z,19.97
2022-11-28T17:37:51.327Z,20.70
2022-11-28T17:40:33.027Z,19.60
2022-11-28T17:43:01.203Z,20.13
2022-11-28T17:45:30.721Z,21.80
2022-11-28T17:47:58.713Z,19.93
2022-11-28T17:50:25.643Z,19.00
2022-11-28T17:52:52.780Z,18.43
2022-11-28T17:55:20.756Z,20.57
2022-11-28T17:57:47.959Z,19.30
2022-11-28T18:00:16.807Z,20.83
2022-11-28T18:02:44.851Z,21.10
2022-11-28T18:05:12.224Z,21.40
2022-11-28T18:07:40.427Z,20.77
2022-11-28T18:10:11.253Z,18.97
2022-11-28T18:12:39.474Z,22.30
2022-11-28T18:15:08.156Z,20.00
2022-11-28T18:17:35.608Z,18.87
2022-11-28T18:20:03.662Z,20.20
2022-11-28T18:22:30.901Z,20.37
2022-11-28T18:24:58.113Z,20.97
2022-11-28T18:27:25.047Z,21.33
2022-11-28T18:29:51.968Z,20.93
2022-11-28T18:32:18.993Z,20.00
2022-11-28T18:34:47.051Z,19.40
2022-11-28T18:37:14.130Z,19.47
2022-11-28T18:39:42.205Z,18.47
2022-11-28T18:42:09.396Z,19.37
2022-11-28T18:44:36.275Z,20.40
2022-11-28T18:47:03.169Z,20.80
2022-11-28T18:49:30.195Z,21.57
2022-11-28T18:51:57.582Z,20.90
2022-11-28T18:54:25.753Z,22.77
2022-11-28T18:56:52.685Z,20.17
2022-11-28T18:59:20.152Z,21.17
2022-11-28T19:01:47.531Z,19.60
2022-11-28T19:04:16.792Z,18.77
2022-11-28T19:06:44.888Z,19.37
2022-11-28T19:09:14.820Z,19.90
2022-11-28T19:11:42.454Z,19.73
2022-11-28T19:14:15.680Z,18.37
2022-11-28T19:16:43.610Z,21.60
2022-11-28T19:19:14.266Z,19.27
2022-11-28T19:21:41.260Z,19.70
2022-11-28T19:24:08.726Z,20.07
2022-11-28T19:26:37.910Z,19.77
2022-11-28T19:29:05.833Z,20.73
2022-11-28T19:31:35.450Z,21.17
2022-11-28T19:34:12.275Z,21.27
2022-11-28T19:36:45.654Z,28.20
2022-11-28T19:39:26.272Z,21.50
2022-11-28T19:41:55.123Z,24.97
2022-11-28T19:44:24.658Z,24.27
2022-11-28T19:46:53.492Z,25.67
2022-11-28T19:49:24.087Z,26.03
2022-11-28T19:51:52.262Z,21.97
2022-11-28T19:54:22.417Z,20.37
2022-11-28T19:56:50.140Z,20.77
2022-11-28T19:59:19.347Z,19.83
2022-11-28T20:01:49.764Z,19.77
2022-11-28T20:04:17.291Z,19.07
2022-11-28T20:06:44.169Z,19.23
2022-11-28T20:09:13.654Z,20.37
2022-11-28T20:11:43.545Z,21.17
2022-11-28T20:14:15.263Z,19.30
2022-11-28T20:16:42.935Z,20.00
2022-11-28T20:19:12.403Z,20.57
2022-11-28T20:21:40.309Z,18.83
2022-11-28T20:24:08.671Z,18.93
2022-11-28T20:26:42.658Z,20.07
2022-11-28T20:29:15.078Z,19.13
2022-11-28T20:31:47.075Z,19.63
2022-11-28T20:34:17.364Z,19.67
2022-11-28T20:36:44.856Z,18.63
2022-11-28T20:39:12.882Z,20.27
2022-11-28T20:41:39.813Z,20.63
2022-11-28T20:44:06.755Z,18.67
2022-11-28T20:46:35.492Z,18.10
2022-11-28T20:49:06.234Z,28.40
2022-11-28T20:51:35.173Z,23.63
2022-11-28T20:54:04.748Z,23.53
2022-11-28T20:56:51.925Z,20.33
2022-11-28T20:59:23.416Z,16.10
2022-11-28T21:01:50.502Z,15.70
2022-11-28T21:04:18.866Z,14.90
2022-11-28T21:06:48.976Z,16.53
2022-11-28T21:09:20.542Z,16.93
2022-11-28T21:11:57.944Z,19.93
2022-11-28T21:14:26.530Z,18.57
2022-11-28T21:16:54.695Z,20.87
2022-11-28T21:19:21.910Z,17.17
2022-11-28T21:21:48.794Z,18.77
2022-11-28T21:24:15.869Z,19.17
2022-11-28T21:26:48.112Z,17.23
2022-11-28T21:29:20.149Z,15.13
2022-11-28T21:31:47.216Z,16.17
2022-11-28T21:34:16.606Z,16.33
2022-11-28T21:36:43.881Z,15.70
2022-11-28T21:39:14.908Z,15.37
2022-11-28T21:41:42.015Z,15.03
2022-11-28T21:44:09.204Z,15.07
2022-11-28T21:46:36.152Z,14.57
2022-11-28T21:49:03.065Z,13.90
2022-11-28T21:51:30.051Z,20.33
2022-11-28T21:53:57.917Z,17.80
2022-11-28T21:56:26.027Z,16.93
2022-11-28T21:58:54.218Z,17.87
2022-11-28T22:01:22.006Z,17.67
2022-11-28T22:03:49.471Z,21.57
2022-11-28T22:06:25.404Z,20.73
2022-11-28T22:08:54.046Z,19.47
2022-11-28T22:11:22.903Z,17.67
2022-11-28T22:13:51.099Z,14.43
2022-11-28T22:16:25.013Z,17.70
2022-11-28T22:18:54.453Z,15.97
2022-11-28T22:21:51.466Z,16.47
2022-11-28T22:24:09.277Z,19.87
2022-11-28T22:26:36.707Z,17.33
2022-11-28T22:29:04.501Z,15.47
2022-11-28T22:31:32.825Z,16.63
2022-11-28T22:34:00.081Z,15.37
2022-11-28T22:36:27.309Z,16.53
2022-11-28T22:38:56.523Z,19.57
2022-11-28T22:41:28.843Z,23.27
2022-11-28T22:44:00.838Z,25.60
2022-11-28T22:46:30.243Z,23.03
2022-11-28T22:49:02.333Z,22.47
2022-11-28T22:51:31.525Z,17.57
2022-11-28T22:54:01.557Z,18.10
2022-11-28T22:56:32.439Z,16.20
2022-11-28T22:59:00.825Z,14.97
2022-11-28T23:01:30.698Z,14.70
2022-11-28T23:03:58.646Z,15.50
2022-11-28T23:06:31.304Z,14.73
2022-11-28T23:08:59.694Z,16.20
2022-11-28T23:11:30.887Z,16.17
2022-11-28T23:13:59.055Z,14.73
2022-11-28T23:16:33.983Z,15.10
2022-11-28T23:19:06.004Z,15.83
2022-11-28T23:21:37.635Z,15.50
2022-11-28T23:24:11.760Z,15.37
2022-11-28T23:26:38.837Z,18.33
2022-11-28T23:29:06.478Z,18.07
2022-11-28T23:31:38.063Z,16.20
2022-11-28T23:34:05.891Z,16.77
2022-11-28T23:36:42.447Z,15.73
2022-11-28T23:39:19.716Z,17.03
2022-11-28T23:41:47.226Z,14.30
2022-11-28T23:44:16.800Z,17.40
2022-11-28T23:46:44.393Z,13.90
2022-11-28T23:49:12.321Z,15.57
2022-11-28T23:51:40.599Z,14.93
2022-11-28T23:54:08.944Z,14.30
2022-11-28T23:56:37.928Z,14.03
2022-11-28T23:59:07.556Z,15.40
